createdAt,value
2024-03-04T00:00:29.624Z,0.49
2024-03-04T00:03:03.389Z,0.38
2024-03-04T00:05:36.848Z,0.48
2024-03-04T00:08:09.747Z,0.50
2024-03-04T00:10:43.720Z,0.50
2024-03-04T00:13:18.564Z,0.46
2024-03-04T00:15:51.886Z,0.40
2024-03-04T00:18:25.663Z,0.39
2024-03-04T00:20:59.577Z,0.45
2024-03-04T00:23:32.532Z,0.43
2024-03-04T00:26:08.030Z,0.41
2024-03-04T00:28:42.194Z,0.33
2024-03-04T00:31:15.702Z,0.37
2024-03-04T00:33:48.338Z,0.37
2024-03-04T00:36:23.352Z,0.37
2024-03-04T00:38:58.723Z,0.36
2024-03-04T00:41:31.490Z,0.34
2024-03-04T00:44:06.084Z,0.34
2024-03-04T00:46:41.874Z,0.31
2024-03-04T00:49:14.862Z,0.29
2024-03-04T00:51:48.069Z,0.29
2024-03-04T00:54:20.633Z,0.26
2024-03-04T00:56:53.510Z,0.23
2024-03-04T00:59:29.211Z,0.18
2024-03-04T01:02:01.956Z,0.10
2024-03-04T01:04:35.808Z,0.14
2024-03-04T01:07:08.584Z,0.17
2024-03-04T01:09:42.210Z,0.12
2024-03-04T01:12:16.259Z,0.11
2024-03-04T01:14:50.238Z,0.07
2024-03-04T01:17:23.623Z,0.03
2024-03-04T01:19:56.745Z,0.00
2024-03-04T01:22:30.439Z,-0.01
2024-03-04T01:25:05.195Z,-0.02
2024-03-04T01:27:38.551Z,-0.04
2024-03-04T01:30:15.561Z,-0.10
2024-03-04T01:32:48.465Z,-0.10
2024-03-04T01:35:21.668Z,-0.13
2024-03-04T01:37:54.711Z,-0.17
2024-03-04T01:40:27.781Z,-0.19
2024-03-04T01:43:00.979Z,-0.22
2024-03-04T01:45:35.722Z,-0.24
2024-03-04T01:48:11.064Z,-0.29
2024-03-04T01:50:46.469Z,-0.35
2024-03-04T01:53:20.590Z,-0.35
2024-03-04T01:55:57.622Z,-0.35
2024-03-04T01:58:32.527Z,-0.34
2024-03-04T02:01:07.167Z,-0.33
2024-03-04T02:03:40.710Z,-0.36
2024-03-04T02:06:14.089Z,-0.38
2024-03-04T02:08:47.281Z,-0.41
2024-03-04T02:11:21.286Z,-0.42
2024-03-04T02:13:54.267Z,-0.43
2024-03-04T02:16:28.808Z,-0.44
2024-03-04T02:19:02.357Z,-0.42
2024-03-04T02:21:40.541Z,-0.39
2024-03-04T02:24:15.598Z,-0.42
2024-03-04T02:26:50.907Z,-0.37
2024-03-04T02:29:24.997Z,-0.36
2024-03-04T02:31:58.889Z,-0.45
2024-03-04T02:34:31.765Z,-0.41
2024-03-04T02:37:04.956Z,-0.44
2024-03-04T02:39:40.681Z,-0.41
2024-03-04T02:42:13.894Z,-0.49
2024-03-04T02:44:46.957Z,-0.37
2024-03-04T02:47:19.868Z,-0.38
2024-03-04T02:49:52.439Z,-0.38
2024-03-04T02:52:25.606Z,-0.41
2024-03-04T02:55:00.161Z,-0.43
2024-03-04T02:57:33.328Z,-0.43
2024-03-04T03:00:07.853Z,-0.50
2024-03-04T03:02:41.068Z,-0.47
2024-03-04T03:05:14.050Z,-0.47
2024-03-04T03:07:47.431Z,-0.55
2024-03-04T03:10:21.804Z,-0.48
2024-03-04T03:12:55.232Z,-0.52
2024-03-04T03:15:28.261Z,-0.55
2024-03-04T03:18:01.956Z,-0.54
2024-03-04T03:20:35.158Z,-0.57
2024-03-04T03:23:08.191Z,-0.55
2024-03-04T03:25:42.779Z,-0.54
2024-03-04T03:28:15.573Z,-0.56
2024-03-04T03:30:48.838Z,-0.55
2024-03-04T03:33:21.510Z,-0.56
2024-03-04T03:35:54.816Z,-0.56
2024-03-04T03:38:27.375Z,-0.54
2024-03-04T03:41:04.761Z,-0.54
2024-03-04T03:43:37.425Z,-0.56
2024-03-04T03:46:10.835Z,-0.60
2024-03-04T03:48:44.189Z,-0.60
2024-03-04T03:51:17.238Z,-0.61
2024-03-04T03:53:50.075Z,-0.59
2024-03-04T03:56:24.646Z,-0.61
2024-03-04T03:58:57.337Z,-0.67
2024-03-04T04:01:30.697Z,-0.64
2024-03-04T04:04:03.575Z,-0.64
2024-03-04T04:06:36.644Z,-0.68
2024-03-04T04:09:09.893Z,-0.65
2024-03-04T04:11:45.807Z,-0.67
2024-03-04T04:14:18.690Z,-0.64
2024-03-04T04:16:51.736Z,-0.64
2024-03-04T04:19:25.482Z,-0.63
2024-03-04T04:21:59.146Z,-0.67
2024-03-04T04:24:32.671Z,-0.68
2024-03-04T04:27:07.808Z,-0.71
2024-03-04T04:29:41.042Z,-0.73
2024-03-04T04:32:14.485Z,-0.75
2024-03-04T04:34:47.377Z,-0.80
2024-03-04T04:37:20.817Z,-0.83
2024-03-04T04:39:53.507Z,-0.77
2024-03-04T04:42:29.428Z,-0.86
2024-03-04T04:45:04.189Z,-0.89
2024-03-04T04:47:37.505Z,-0.75
2024-03-04T04:50:13.519Z,-0.83
2024-03-04T04:52:46.377Z,-0.71
2024-03-04T04:55:19.588Z,-0.69
2024-03-04T04:57:53.651Z,-0.65
2024-03-04T05:00:26.773Z,-0.66
2024-03-04T05:02:59.377Z,-0.62
2024-03-04T05:05:32.575Z,-0.62
2024-03-04T05:08:06.662Z,-0.64
2024-03-04T05:10:40.939Z,-0.57
2024-03-04T05:13:15.331Z,-0.56
2024-03-04T05:15:48.727Z,-0.59
2024-03-04T05:18:23.876Z,-0.55
2024-03-04T05:20:57.359Z,-0.54
2024-03-04T05:23:37.705Z,-0.51
2024-03-04T05:26:10.376Z,-0.51
2024-03-04T05:28:46.361Z,-0.52
2024-03-04T05:31:20.353Z,-0.47
2024-03-04T05:33:53.238Z,-0.46
2024-03-04T05:36:25.810Z,-0.35
2024-03-04T05:38:58.561Z,-0.28
2024-03-04T05:41:31.514Z,-0.27
2024-03-04T05:44:06.132Z,-0.17
2024-03-04T05:46:39.781Z,-0.12
2024-03-04T05:49:13.718Z,-0.04
2024-03-04T05:51:46.794Z,0.00
2024-03-04T05:54:19.929Z,0.08
2024-03-04T05:56:53.317Z,0.14
2024-03-04T05:59:28.164Z,0.20
2024-03-04T06:02:00.870Z,0.18
2024-03-04T06:04:36.995Z,0.26
2024-03-04T06:07:10.719Z,0.29
2024-03-04T06:09:44.668Z,0.36
2024-03-04T06:12:17.650Z,0.38
2024-03-04T06:14:52.189Z,0.40
2024-03-04T06:17:24.830Z,0.43
2024-03-04T06:19:58.058Z,0.47
2024-03-04T06:22:33.214Z,0.49
2024-03-04T06:25:07.997Z,0.51
2024-03-04T06:27:41.529Z,0.49
2024-03-04T06:30:17.284Z,0.50
2024-03-04T06:32:50.531Z,0.54
2024-03-04T06:35:23.256Z,0.61
2024-03-04T06:37:56.686Z,0.66
2024-03-04T06:40:29.481Z,0.74
2024-03-04T06:43:02.707Z,0.83
2024-03-04T06:45:39.482Z,0.86
2024-03-04T06:48:12.350Z,0.90
2024-03-04T06:50:45.319Z,0.93
2024-03-04T06:53:18.451Z,0.99
2024-03-04T06:55:51.258Z,1.03
2024-03-04T06:58:24.767Z,1.03
2024-03-04T07:00:59.745Z,1.00
2024-03-04T07:03:32.380Z,1.06
2024-03-04T07:06:05.824Z,1.07
2024-03-04T07:08:38.640Z,1.08
2024-03-04T07:11:12.613Z,1.08
2024-03-04T07:13:45.691Z,0.79
2024-03-04T07:16:20.017Z,1.08
2024-03-04T07:18:53.990Z,1.07
2024-03-04T07:21:26.761Z,1.11
2024-03-04T07:23:59.975Z,1.15
2024-03-04T07:26:32.701Z,1.11
2024-03-04T07:29:10.054Z,1.15
2024-03-04T07:31:50.816Z,1.25
2024-03-04T07:34:27.670Z,1.27
2024-03-04T07:37:01.179Z,1.28
2024-03-04T07:39:33.778Z,1.28
2024-03-04T07:42:07.613Z,1.29
2024-03-04T07:44:43.926Z,1.28
2024-03-04T07:47:17.925Z,1.19
2024-03-04T07:49:50.814Z,1.25
2024-03-04T07:52:26.598Z,1.25
2024-03-04T07:54:59.558Z,1.30
2024-03-04T07:57:32.443Z,1.33
2024-03-04T08:00:10.271Z,1.37
2024-03-04T08:02:45.064Z,1.39
2024-03-04T08:05:18.289Z,1.44
2024-03-04T08:07:50.942Z,1.45
2024-03-04T08:10:23.877Z,1.49
2024-03-04T08:12:57.156Z,1.49
2024-03-04T08:15:30.519Z,1.47
2024-03-04T08:18:05.354Z,1.50
2024-03-04T08:20:38.632Z,1.56
2024-03-04T08:23:11.759Z,1.60
2024-03-04T08:25:44.478Z,1.66
2024-03-04T08:28:24.172Z,1.64
2024-03-04T08:31:06.178Z,1.68
2024-03-04T08:33:40.908Z,1.72
2024-03-04T08:36:13.615Z,1.75
2024-03-04T08:38:46.500Z,1.79
2024-03-04T08:41:19.791Z,1.83
2024-03-04T08:43:53.226Z,1.90
2024-03-04T08:46:27.870Z,2.00
2024-03-04T08:49:02.266Z,2.08
2024-03-04T08:51:35.001Z,2.12
2024-03-04T08:54:08.376Z,2.16
2024-03-04T08:56:44.312Z,2.20
2024-03-04T08:59:18.596Z,2.24
2024-03-04T09:01:51.183Z,2.27
2024-03-04T09:04:25.837Z,2.31
2024-03-04T09:06:58.504Z,2.36
2024-03-04T09:09:35.909Z,2.37
2024-03-04T09:12:09.687Z,2.40
2024-03-04T09:14:43.128Z,2.40
2024-03-04T09:17:16.007Z,2.47
2024-03-04T09:19:50.352Z,2.56
2024-03-04T09:22:22.989Z,2.62
2024-03-04T09:24:56.351Z,2.63
2024-03-04T09:27:34.288Z,2.70
2024-03-04T09:30:10.259Z,2.72
2024-03-04T09:32:44.675Z,2.70
2024-03-04T09:35:19.234Z,2.72
2024-03-04T09:37:52.190Z,2.72
2024-03-04T09:40:26.683Z,2.74
2024-03-04T09:43:00.088Z,2.78
2024-03-04T09:45:34.144Z,2.78
2024-03-04T09:48:13.088Z,2.81
2024-03-04T09:50:48.965Z,2.86
2024-03-04T09:53:22.842Z,2.81
2024-03-04T09:55:57.011Z,2.96
2024-03-04T09:58:30.588Z,2.97
2024-03-04T10:01:04.866Z,2.99
2024-03-04T10:03:38.012Z,3.13
2024-03-04T10:06:13.252Z,3.17
2024-03-04T10:08:46.743Z,3.17
2024-03-04T10:11:20.120Z,3.15
2024-03-04T10:13:54.471Z,3.22
2024-03-04T10:16:28.864Z,3.22
2024-03-04T10:19:07.126Z,3.31
2024-03-04T10:21:41.643Z,3.23
2024-03-04T10:24:15.725Z,3.38
2024-03-04T10:26:48.447Z,3.47
2024-03-04T10:29:24.439Z,3.55
2024-03-04T10:31:57.419Z,3.57
2024-03-04T10:34:30.720Z,3.66
2024-03-04T10:37:06.209Z,3.67
2024-03-04T10:39:40.269Z,3.76
2024-03-04T10:42:13.615Z,3.79
2024-03-04T10:44:48.377Z,3.78
2024-03-04T10:47:22.219Z,3.80
2024-03-04T10:49:56.480Z,3.83
2024-03-04T10:52:30.772Z,3.83
2024-03-04T10:55:04.701Z,3.83
2024-03-04T10:57:42.905Z,3.90
2024-03-04T11:00:27.442Z,3.94
2024-03-04T11:03:14.383Z,3.91
2024-03-04T11:05:52.052Z,4.01
2024-03-04T11:08:31.926Z,3.98
2024-03-04T11:11:10.512Z,4.05
2024-03-04T11:13:51.249Z,4.08
2024-03-04T11:16:29.109Z,4.02
2024-03-04T11:19:07.822Z,3.96
2024-03-04T11:21:42.018Z,3.94
2024-03-04T11:24:18.345Z,3.58
2024-03-04T11:26:52.657Z,3.82
2024-03-04T11:29:26.859Z,3.78
2024-03-04T11:32:01.077Z,3.89
2024-03-04T11:34:58.875Z,3.84
2024-03-04T11:37:32.710Z,3.89
2024-03-04T11:40:14.760Z,3.77
2024-03-04T11:42:48.417Z,3.77
2024-03-04T11:45:24.282Z,3.72
2024-03-04T11:47:57.556Z,3.76
2024-03-04T11:50:48.310Z,3.77
2024-03-04T11:53:28.186Z,3.72
2024-03-04T11:56:02.337Z,3.86
2024-03-04T11:58:58.755Z,3.90
2024-03-04T12:01:32.223Z,3.92
2024-03-04T12:04:05.169Z,3.89
2024-03-04T12:06:39.431Z,3.91
2024-03-04T12:09:36.827Z,4.00
2024-03-04T12:12:07.503Z,3.98
2024-03-04T12:14:40.205Z,4.03
2024-03-04T12:17:14.113Z,4.03
2024-03-04T12:19:53.921Z,4.06
2024-03-04T12:22:33.125Z,4.07
2024-03-04T12:25:12.333Z,4.07
2024-03-04T12:27:49.071Z,4.09
2024-03-04T12:30:24.065Z,4.08
2024-03-04T12:33:03.076Z,4.07
2024-03-04T12:35:35.719Z,4.12
2024-03-04T12:38:11.593Z,4.15
2024-03-04T12:40:44.701Z,4.04
2024-03-04T12:43:19.661Z,4.14
2024-03-04T12:45:53.490Z,3.99
2024-03-04T12:48:26.767Z,4.16
2024-03-04T12:51:00.675Z,4.12
2024-03-04T12:53:34.784Z,4.05
2024-03-04T12:56:08.271Z,4.11
2024-03-04T12:58:43.461Z,4.07
2024-03-04T13:01:20.439Z,4.17
2024-03-04T13:03:54.274Z,4.02
2024-03-04T13:06:27.208Z,4.16
2024-03-04T13:09:00.546Z,4.15
2024-03-04T13:11:33.312Z,4.05
2024-03-04T13:14:07.583Z,4.09
2024-03-04T13:16:40.412Z,4.08
2024-03-04T13:19:16.974Z,4.09
2024-03-04T13:21:50.819Z,4.11
2024-03-04T13:24:23.581Z,4.10
2024-03-04T13:26:56.949Z,4.08
2024-03-04T13:29:33.053Z,4.05
2024-03-04T13:32:06.071Z,3.99
2024-03-04T13:34:39.047Z,3.99
2024-03-04T13:37:13.564Z,3.96
2024-03-04T13:39:46.457Z,3.95
2024-03-04T13:42:20.547Z,4.01
2024-03-04T13:44:55.124Z,3.91
2024-03-04T13:47:28.038Z,3.97
2024-03-04T13:50:01.578Z,3.86
2024-03-04T13:52:36.694Z,3.90
2024-03-04T13:55:10.286Z,3.88
2024-03-04T13:57:43.068Z,3.86
2024-03-04T14:00:17.949Z,3.85
2024-03-04T14:02:53.253Z,3.82
2024-03-04T14:05:26.302Z,3.80
2024-03-04T14:07:59.055Z,3.84
2024-03-04T14:10:32.071Z,3.81
2024-03-04T14:13:05.152Z,3.51
2024-03-04T14:15:39.389Z,3.81
2024-03-04T14:18:12.904Z,3.80
2024-03-04T14:20:48.904Z,3.76
2024-03-04T14:23:23.808Z,3.75
2024-03-04T14:25:57.057Z,3.72
2024-03-04T14:28:31.217Z,3.68
2024-03-04T14:31:07.262Z,3.63
2024-03-04T14:33:40.299Z,3.62
2024-03-04T14:36:13.132Z,3.59
2024-03-04T14:38:45.997Z,3.60
2024-03-04T14:41:20.073Z,3.48
2024-03-04T14:43:54.207Z,3.54
2024-03-04T14:46:28.909Z,3.52
2024-03-04T14:49:01.521Z,3.49
2024-03-04T14:51:35.277Z,3.47
2024-03-04T14:54:07.963Z,3.45
2024-03-04T14:56:41.454Z,3.32
2024-03-04T14:59:14.681Z,3.45
2024-03-04T15:01:52.613Z,3.41
2024-03-04T15:04:25.669Z,3.44
2024-03-04T15:06:59.073Z,3.21
2024-03-04T15:09:33.915Z,3.40
2024-03-04T15:12:07.889Z,3.38
2024-03-04T15:14:41.372Z,3.34
2024-03-04T15:17:16.004Z,3.32
2024-03-04T15:19:49.966Z,3.25
2024-03-04T15:22:23.077Z,3.21
2024-03-04T15:24:56.147Z,3.18
2024-03-04T15:27:29.344Z,3.15
2024-03-04T15:30:02.650Z,3.11
2024-03-04T15:32:39.918Z,3.06
2024-03-04T15:35:17.278Z,2.90
2024-03-04T15:37:49.913Z,3.03
2024-03-04T15:40:22.866Z,3.01
2024-03-04T15:42:58.285Z,2.99
2024-03-04T15:45:31.251Z,2.98
2024-03-04T15:48:07.657Z,2.92
2024-03-04T15:50:40.890Z,2.95
2024-03-04T15:53:13.454Z,2.92
2024-03-04T15:55:46.940Z,2.89
2024-03-04T15:58:26.597Z,2.87
2024-03-04T16:00:59.259Z,2.86
2024-03-04T16:03:34.889Z,2.85
2024-03-04T16:06:08.073Z,2.81
2024-03-04T16:08:41.674Z,2.81
2024-03-04T16:11:14.547Z,2.78
2024-03-04T16:13:47.561Z,2.73
2024-03-04T16:16:20.743Z,2.67
2024-03-04T16:18:54.905Z,2.72
2024-03-04T16:21:29.444Z,2.70
2024-03-04T16:24:03.761Z,2.67
2024-03-04T16:26:36.385Z,2.65
2024-03-04T16:29:09.442Z,2.63
2024-03-04T16:31:42.479Z,2.61
2024-03-04T16:34:16.894Z,2.55
2024-03-04T16:36:49.533Z,2.53
2024-03-04T16:39:24.089Z,2.51
2024-03-04T16:41:57.598Z,2.50
2024-03-04T16:44:30.734Z,2.46
2024-03-04T16:47:03.859Z,2.28
2024-03-04T16:49:40.106Z,2.42
2024-03-04T16:52:13.087Z,2.30
2024-03-04T16:54:46.461Z,2.30
2024-03-04T16:57:19.754Z,2.42
2024-03-04T16:59:53.445Z,2.41
2024-03-04T17:02:28.827Z,2.41
2024-03-04T17:05:03.382Z,2.41
2024-03-04T17:07:55.629Z,2.29
2024-03-04T17:10:28.443Z,2.39
2024-03-04T17:13:01.499Z,2.31
2024-03-04T17:15:38.879Z,2.38
2024-03-04T17:18:19.582Z,2.38
2024-03-04T17:20:57.054Z,2.38
2024-03-04T17:23:30.344Z,2.29
2024-03-04T17:26:03.608Z,2.36
2024-03-04T17:28:36.599Z,2.26
2024-03-04T17:31:09.668Z,2.33
2024-03-04T17:33:42.807Z,2.23
2024-03-04T17:36:17.288Z,2.29
2024-03-04T17:38:50.004Z,2.27
2024-03-04T17:41:23.026Z,2.26
2024-03-04T17:43:56.019Z,2.24
2024-03-04T17:46:29.266Z,2.23
2024-03-04T17:49:02.167Z,2.16
2024-03-04T17:51:41.624Z,2.14
2024-03-04T17:54:14.181Z,2.14
2024-03-04T17:56:47.450Z,2.12
2024-03-04T17:59:20.524Z,2.11
2024-03-04T18:01:54.274Z,2.10
2024-03-04T18:04:29.239Z,2.10
2024-03-04T18:07:03.545Z,2.08
2024-03-04T18:09:36.621Z,2.07
2024-03-04T18:12:09.804Z,2.05
2024-03-04T18:14:44.628Z,2.03
2024-03-04T18:17:18.846Z,1.99
2024-03-04T18:19:51.833Z,2.01
2024-03-04T18:22:27.344Z,1.94
2024-03-04T18:25:00.654Z,1.94
2024-03-04T18:27:33.612Z,1.90
2024-03-04T18:30:07.659Z,1.76
2024-03-04T18:32:41.462Z,1.89
2024-03-04T18:35:14.441Z,1.75
2024-03-04T18:37:49.272Z,1.84
2024-03-04T18:40:22.081Z,1.77
2024-03-04T18:42:55.210Z,1.79
2024-03-04T18:45:28.366Z,1.78
2024-03-04T18:48:01.406Z,1.74
2024-03-04T18:50:34.559Z,1.69
2024-03-04T18:53:09.828Z,1.64
2024-03-04T18:55:43.119Z,1.61
2024-03-04T18:58:16.370Z,1.48
2024-03-04T19:00:49.055Z,1.60
2024-03-04T19:03:22.193Z,1.56
2024-03-04T19:05:55.475Z,1.48
2024-03-04T19:08:29.686Z,1.50
2024-03-04T19:11:08.768Z,1.46
2024-03-04T19:13:48.593Z,1.41
2024-03-04T19:16:22.947Z,1.28
2024-03-04T19:18:56.803Z,1.34
2024-03-04T19:21:29.486Z,1.32
2024-03-04T19:24:04.104Z,1.29
2024-03-04T19:26:38.056Z,1.22
2024-03-04T19:29:10.941Z,1.13
2024-03-04T19:31:43.974Z,1.09
2024-03-04T19:34:18.151Z,1.09
2024-03-04T19:36:51.047Z,1.13
2024-03-04T19:39:25.833Z,1.12
2024-03-04T19:41:59.658Z,1.10
2024-03-04T19:44:34.366Z,1.10
2024-03-04T19:47:07.120Z,1.10
2024-03-04T19:49:40.074Z,1.08
2024-03-04T19:52:15.975Z,0.99
2024-03-04T19:54:51.896Z,1.02
2024-03-04T19:57:29.891Z,1.05
2024-03-04T20:00:11.124Z,1.01
2024-03-04T20:02:43.926Z,1.03
2024-03-04T20:05:19.431Z,0.96
2024-03-04T20:07:52.057Z,0.98
2024-03-04T20:10:26.410Z,0.83
2024-03-04T20:12:59.545Z,0.89
2024-03-04T20:15:32.553Z,0.93
2024-03-04T20:18:06.103Z,0.76
2024-03-04T20:20:39.230Z,0.92
2024-03-04T20:23:13.058Z,0.80
2024-03-04T20:25:47.737Z,0.62
2024-03-04T20:28:20.785Z,0.89
2024-03-04T20:30:53.561Z,0.79
2024-03-04T20:33:26.885Z,0.86
2024-03-04T20:36:01.581Z,0.85
2024-03-04T20:38:34.713Z,0.86
2024-03-04T20:41:11.322Z,0.77
2024-03-04T20:43:44.525Z,0.87
2024-03-04T20:46:17.515Z,0.86
2024-03-04T20:48:54.313Z,0.78
2024-03-04T20:51:31.057Z,0.84
2024-03-04T20:57:09.437Z,0.81
2024-03-04T20:59:42.141Z,0.68
2024-03-04T21:02:22.299Z,0.63
2024-03-04T21:04:55.876Z,0.78
2024-03-04T21:07:29.053Z,0.75
2024-03-04T21:10:04.357Z,0.70
2024-03-04T21:12:41.276Z,0.65
2024-03-04T21:15:23.785Z,0.58
2024-03-04T21:17:59.267Z,0.42
2024-03-04T21:20:32.960Z,0.46
2024-03-04T21:23:05.711Z,0.42
2024-03-04T21:25:39.085Z,0.36
2024-03-04T21:28:14.836Z,0.32
2024-03-04T21:30:48.169Z,0.28
2024-03-04T21:33:21.070Z,0.21
2024-03-04T21:35:54.488Z,0.19
2024-03-04T21:38:27.173Z,0.19
2024-03-04T21:41:00.676Z,0.17
2024-03-04T21:43:34.868Z,0.10
2024-03-04T21:46:10.672Z,0.13
2024-03-04T21:48:44.309Z,0.03
2024-03-04T21:51:17.734Z,0.10
2024-03-04T21:53:50.521Z,0.03
2024-03-04T21:56:23.499Z,0.07
2024-03-04T21:58:57.846Z,0.04
2024-03-04T22:01:31.385Z,0.02
2024-03-04T22:04:06.173Z,-0.03
2024-03-04T22:06:39.236Z,-0.23
2024-03-04T22:09:19.069Z,-0.10
2024-03-04T22:11:52.893Z,-0.35
2024-03-04T22:14:27.250Z,-0.19
2024-03-04T22:17:00.577Z,-0.22
2024-03-04T22:19:33.949Z,-0.30
2024-03-04T22:22:07.501Z,-0.29
2024-03-04T22:24:40.311Z,-0.32
2024-03-04T22:27:14.476Z,-0.42
2024-03-04T22:29:48.624Z,-0.34
2024-03-04T22:32:21.888Z,-0.37
2024-03-04T22:34:55.238Z,-0.37
2024-03-04T22:37:27.943Z,-0.40
2024-03-04T22:40:00.889Z,-0.44
2024-03-04T22:42:33.751Z,-0.46
2024-03-04T22:45:09.638Z,-0.47
2024-03-04T22:47:42.264Z,-0.48
2024-03-04T22:50:15.649Z,-0.47
2024-03-04T22:52:48.368Z,-0.50
2024-03-04T22:55:21.961Z,-0.52
2024-03-04T22:57:54.797Z,-0.46
2024-03-04T23:00:52.582Z,-0.49
2024-03-04T23:03:27.132Z,-0.56
2024-03-04T23:06:00.530Z,-0.65
2024-03-04T23:08:33.571Z,-0.55
2024-03-04T23:11:06.892Z,-0.52
2024-03-04T23:13:44.930Z,-0.51
2024-03-04T23:16:19.552Z,-0.47
2024-03-04T23:18:53.512Z,-0.52
2024-03-04T23:21:26.483Z,-0.41
2024-03-04T23:23:59.636Z,-0.38
2024-03-04T23:26:32.250Z,-0.35
2024-03-04T23:29:06.272Z,-0.33
2024-03-04T23:31:40.240Z,-0.33
2024-03-04T23:34:13.638Z,-0.29
2024-03-04T23:36:49.545Z,-0.36
2024-03-04T23:39:24.594Z,-0.44
2024-03-04T23:41:57.988Z,-0.42
2024-03-04T23:44:32.321Z,-0.45
2024-03-04T23:47:07.688Z,-0.48
2024-03-04T23:49:41.040Z,-0.50
2024-03-04T23:54:49.461Z,-0.48
2024-03-04T23:57:23.384Z,-0.50
2024-03-04T23:59:58.552Z,-0.50
